Time;durP1;ratioP1;P1;durP2;ratioP2;P2;SDS_P1;SDS_P2;PMS_P1;PMS_P2;Temp;Humidity;BMP_temperature;BMP_pressure;BME280_temperature;BME280_humidity;BME280_pressure;Samples;Min_cycle;Max_cycle;Signal;HPM_P1;HPM_P2
2023/10/08 00:01:51;;;;;;;7.25;6.75;;;;;;;17.28;85.71;101369.78;6037475;23;20040;-71
2023/10/08 00:04:18;;;;;;;6.93;6.22;;;;;;;17.59;85.90;101420.72;6087504;23;20032;-71
2023/10/08 00:06:46;;;;;;;7.07;6.47;;;;;;;17.02;86.02;101340.63;6077787;23;20037;-71
2023/10/08 00:09:14;;;;;;;6.47;5.88;;;;;;;17.37;86.38;101410.75;6058858;23;20029;-71
2023/10/08 00:11:40;;;;;;;6.40;5.82;;;;;;;17.44;87.10;101446.50;6083526;23;20032;-72
2023/10/08 00:14:10;;;;;;;7.72;6.80;;;;;;;17.37;87.08;101435.47;6057809;23;20026;-72
2023/10/08 00:16:40;;;;;;;6.20;5.70;;;;;;;17.01;87.88;101396.41;6080308;23;20046;-72
2023/10/08 00:19:13;;;;;;;7.18;6.57;;;;;;;16.94;87.70;101388.03;6063461;23;20771;-72
2023/10/08 00:21:40;;;;;;;6.68;5.68;;;;;;;16.72;88.36;101383.31;6073862;23;20042;-72
2023/10/08 00:24:07;;;;;;;7.65;6.28;;;;;;;17.09;87.82;101429.41;6055100;23;20021;-72
2023/10/08 00:26:35;;;;;;;6.50;5.90;;;;;;;16.66;87.27;101355.41;6054309;23;20089;-72
2023/10/08 00:29:06;;;;;;;5.75;5.45;;;;;;;17.25;88.16;101474.28;6079676;23;20036;-72
2023/10/08 00:31:40;;;;;;;6.93;6.18;;;;;;;17.24;88.02;101479.69;6094378;23;20078;-71
2023/10/08 00:34:11;;;;;;;6.70;6.18;;;;;;;16.89;88.03;101424.59;6073934;23;20038;-71
2023/10/08 00:36:43;;;;;;;6.50;6.05;;;;;;;16.86;88.06;101432.78;6084973;23;20625;-72
2023/10/08 00:39:13;;;;;;;6.93;6.32;;;;;;;17.20;87.87;101467.59;6052961;23;20582;-72
2023/10/08 00:41:45;;;;;;;6.35;5.93;;;;;;;16.80;88.56;101427.81;6081314;23;20041;-71
2023/10/08 00:44:22;;;;;;;8.40;6.05;;;;;;;17.19;89.01;101487.13;6053908;23;20484;-72
2023/10/08 00:46:49;;;;;;;6.78;6.28;;;;;;;17.12;89.24;101482.25;6078682;23;20421;-72
2023/10/08 00:52:00;;;;;;;7.38;6.78;;;;;;;17.06;88.55;101450.84;6073008;23;20592;-72
2023/10/08 00:54:28;;;;;;;6.88;6.00;;;;;;;16.87;88.88;101432.66;6063987;23;20061;-71
2023/10/08 00:56:57;;;;;;;6.50;5.93;;;;;;;16.72;88.27;101421.25;6075594;23;20033;-72
2023/10/08 00:59:33;;;;;;;6.82;6.10;;;;;;;16.98;89.22;101484.97;6083838;23;20037;-72
2023/10/08 01:02:05;;;;;;;8.15;7.22;;;;;;;16.92;88.70;101470.31;6069170;23;20087;-71
2023/10/08 01:04:34;;;;;;;6.10;5.70;;;;;;;16.24;89.72;101391.72;6078223;23;20041;-72
2023/10/08 01:07:12;;;;;;;6.55;5.97;;;;;;;16.79;90.29;101479.16;6076051;23;20014;-72
2023/10/08 01:09:42;;;;;;;8.13;6.05;;;;;;;15.90;89.77;101343.59;6052157;23;20117;-72
2023/10/08 01:12:18;;;;;;;7.07;6.40;;;;;;;16.73;89.92;101467.16;6079776;23;20049;-73
2023/10/08 01:14:46;;;;;;;6.18;5.78;;;;;;;16.46;90.35;101445.97;6078339;23;20601;-73
2023/10/08 01:17:14;;;;;;;6.05;5.70;;;;;;;16.43;90.64;101449.66;6053587;23;20032;-73
2023/10/08 01:19:45;;;;;;;6.30;5.93;;;;;;;16.47;92.17;101482.09;6076784;23;20024;-75
2023/10/08 01:22:18;;;;;;;6.60;6.00;;;;;;;15.85;92.02;101385.38;6073896;23;20092;-73
2023/10/08 01:24:48;;;;;;;7.28;6.43;;;;;;;16.34;92.45;101493.50;6081571;23;20018;-73
2023/10/08 01:27:21;;;;;;;7.10;5.95;;;;;;;16.31;92.04;101476.94;6057460;23;20032;-73
2023/10/08 01:29:51;;;;;;;7.32;6.63;;;;;;;16.22;92.28;101451.06;6076895;23;20060;-73
2023/10/08 01:32:20;;;;;;;6.38;5.88;;;;;;;16.22;92.81;101474.88;6085264;23;20068;-73
2023/10/08 01:34:47;;;;;;;5.80;5.50;;;;;;;16.05;93.15;101473.28;6077529;23;20305;-72
2023/10/08 01:37:18;;;;;;;6.47;6.07;;;;;;;16.17;93.50;101519.34;6054196;23;20023;-72
2023/10/08 01:39:45;;;;;;;6.55;5.93;;;;;;;16.11;93.75;101515.28;6078295;23;20021;-71
2023/10/08 01:42:17;;;;;;;6.47;5.93;;;;;;;16.02;94.83;101521.16;6083169;23;20029;-72
2023/10/08 01:44:54;;;;;;;5.90;5.57;;;;;;;15.95;94.80;101524.16;6077191;23;20109;-71
2023/10/08 01:47:20;;;;;;;6.15;5.72;;;;;;;15.33;95.00;101434.44;6058368;23;20252;-72
2023/10/08 01:49:47;;;;;;;6.32;5.93;;;;;;;15.69;95.17;101493.13;6078445;23;20100;-72
2023/10/08 01:52:22;;;;;;;5.88;5.47;;;;;;;15.61;95.59;101498.88;6055621;23;20037;-71
2023/10/08 01:54:49;;;;;;;7.15;5.85;;;;;;;15.87;96.20;101549.41;6050681;23;20477;-72
2023/10/08 01:57:16;;;;;;;6.25;5.82;;;;;;;15.34;96.51;101459.06;6078846;23;20113;-72
2023/10/08 01:59:44;;;;;;;6.55;6.05;;;;;;;15.50;96.42;101483.66;6062334;23;20618;-72
2023/10/08 02:02:12;;;;;;;6.63;6.10;;;;;;;15.60;97.13;101510.41;6053813;23;20038;-72
2023/10/08 02:04:39;;;;;;;6.47;5.90;;;;;;;15.35;96.88;101458.13;6078201;23;20030;-72
2023/10/08 02:07:12;;;;;;;6.28;5.85;;;;;;;15.63;97.00;101499.63;6064359;23;20410;-71
2023/10/08 02:09:40;;;;;;;7.00;6.30;;;;;;;15.47;97.01;101475.06;6075979;23;20030;-71
2023/10/08 02:12:08;;;;;;;6.63;6.13;;;;;;;15.70;97.80;101537.19;6061653;23;20036;-71
2023/10/08 02:14:35;;;;;;;6.68;6.18;;;;;;;15.68;97.01;101523.19;6077628;23;20089;-71
2023/10/08 02:17:06;;;;;;;6.95;6.30;;;;;;;15.65;97.42;101533.94;6087943;23;20024;-71
2023/10/08 02:19:34;;;;;;;7.03;6.47;;;;;;;15.51;96.93;101506.50;6083693;23;20687;-72
2023/10/08 02:22:01;;;;;;;8.32;7.63;;;;;;;15.39;96.83;101488.72;6056039;23;20049;-72
2023/10/08 02:24:29;;;;;;;6.60;6.10;;;;;;;15.69;97.93;101552.19;6087056;23;20026;-72
2023/10/08 02:26:57;;;;;;;6.20;5.60;;;;;;;15.68;97.63;101547.00;6078233;23;20017;-72
2023/10/08 02:29:29;;;;;;;7.93;5.93;;;;;;;15.72;97.88;101535.28;6085349;23;20024;-72
2023/10/08 02:31:56;;;;;;;7.75;7.15;;;;;;;15.39;97.34;101470.22;6076828;23;20033;-72
2023/10/08 02:34:23;;;;;;;6.22;5.78;;;;;;;15.27;97.35;101447.16;6092379;23;20052;-72
2023/10/08 02:36:50;;;;;;;8.27;5.95;;;;;;;14.18;95.99;101258.91;6082675;23;20041;-72
2023/10/08 02:39:21;;;;;;;6.47;5.90;;;;;;;15.82;95.89;101531.16;6053530;23;20022;-72
2023/10/08 02:41:49;;;;;;;6.70;6.25;;;;;;;15.84;95.78;101517.84;6084559;23;20475;-72
2023/10/08 02:44:17;;;;;;;6.35;5.90;;;;;;;15.86;95.75;101508.00;6052552;23;20477;-72
2023/10/08 02:46:47;;;;;;;6.30;5.90;;;;;;;15.50;95.81;101443.13;6088989;23;20020;-72
2023/10/08 02:49:20;;;;;;;10.93;5.95;;;;;;;15.35;94.09;101413.16;6079253;23;20010;-72
2023/10/08 02:51:50;;;;;;;6.10;5.68;;;;;;;15.77;93.23;101442.41;6065688;23;20085;-71
2023/10/08 02:54:22;;;;;;;7.10;6.40;;;;;;;15.88;92.23;101437.31;6090365;23;20018;-72
2023/10/08 02:56:51;;;;;;;6.78;6.18;;;;;;;14.44;91.14;101193.16;6080689;23;20017;-72
2023/10/08 02:59:21;;;;;;;7.13;6.40;;;;;;;15.56;90.39;101382.75;6087870;23;20531;-72
2023/10/08 03:01:49;;;;;;;6.43;5.82;;;;;;;15.61;90.06;101368.38;6076860;23;20516;-71
2023/10/08 03:04:18;;;;;;;6.53;6.03;;;;;;;15.52;90.49;101396.28;6085911;23;20026;-72
2023/10/08 03:06:49;;;;;;;6.78;6.28;;;;;;;15.82;90.50;101435.03;6087586;23;20033;-73
2023/10/08 03:09:25;;;;;;;6.57;6.03;;;;;;;15.71;90.05;101403.91;6081455;23;20115;-72
2023/10/08 03:11:52;;;;;;;7.10;6.53;;;;;;;15.51;89.31;101384.81;6078666;23;20036;-72
2023/10/08 03:14:22;;;;;;;6.40;6.00;;;;;;;15.65;89.64;101410.41;6027716;23;20017;-73
2023/10/08 03:16:53;;;;;;;10.25;6.28;;;;;;;15.61;89.82;101424.78;6084076;23;20049;-71
2023/10/08 03:19:21;;;;;;;6.03;5.63;;;;;;;15.21;90.14;101371.69;6076230;23;20085;-71
2023/10/08 03:21:55;;;;;;;6.55;6.13;;;;;;;15.55;91.03;101444.56;6081393;23;20030;-72
2023/10/08 03:27:11;;;;;;;5.78;5.47;;;;;;;15.07;90.56;101383.09;6058180;23;20037;-72
2023/10/08 03:29:41;;;;;;;7.00;5.90;;;;;;;15.52;91.31;101452.66;6081866;23;20082;-71
2023/10/08 03:32:13;;;;;;;7.28;6.13;;;;;;;14.24;91.30;101247.97;6059627;23;20351;-71
2023/10/08 03:34:43;;;;;;;6.40;6.00;;;;;;;15.41;92.08;101467.50;6082919;23;20960;-72
2023/10/08 03:37:15;;;;;;;6.35;5.95;;;;;;;15.28;92.98;101462.94;6058901;23;20045;-71
2023/10/08 03:39:50;;;;;;;6.40;6.00;;;;;;;15.33;92.65;101466.16;6080429;23;20429;-72
2023/10/08 03:42:22;;;;;;;8.15;5.78;;;;;;;15.36;92.81;101481.00;6088157;23;20013;-71
2023/10/08 03:44:52;;;;;;;6.07;5.65;;;;;;;15.35;93.01;101468.69;6079366;23;20037;-71
2023/10/08 03:47:19;;;;;;;7.88;5.85;;;;;;;15.06;91.53;101420.22;6088084;23;20614;-72
2023/10/08 03:49:46;;;;;;;5.70;5.30;;;;;;;15.01;91.54;101433.69;6089569;23;20026;-72
2023/10/08 03:52:15;;;;;;;5.72;5.30;;;;;;;14.95;92.87;101450.78;6029280;23;20030;-72
2023/10/08 03:54:48;;;;;;;6.97;6.13;;;;;;;14.81;93.71;101450.72;6082047;23;20077;-71
2023/10/08 03:57:25;;;;;;;6.75;6.15;;;;;;;15.35;92.10;101477.50;6052334;23;20026;-71
2023/10/08 03:59:58;;;;;;;7.30;6.80;;;;;;;15.40;92.99;101477.22;6057117;23;20033;-72
2023/10/08 04:02:41;;;;;;;6.78;5.95;;;;;;;15.43;92.93;101482.31;6081608;23;20033;-71
2023/10/08 04:05:21;;;;;;;6.60;5.97;;;;;;;14.52;91.86;101320.31;6080089;23;20559;-71
2023/10/08 04:13:09;;;;;;;;;;;;;;;15.37;91.28;101453.59;6064172;23;20033;-72
2023/10/08 04:15:40;;;;;;;6.50;6.07;;;;;;;14.72;92.25;101386.06;6081008;23;20487;-72
2023/10/08 04:18:12;;;;;;;6.90;6.30;;;;;;;15.30;92.54;101479.56;6075214;23;20033;-73
2023/10/08 04:20:39;;;;;;;6.47;5.95;;;;;;;14.83;92.15;101413.63;6075537;23;20554;-72
2023/10/08 04:23:20;;;;;;;6.38;5.97;;;;;;;15.23;92.62;101472.09;6085290;23;20527;-72
2023/10/08 04:25:54;;;;;;;6.80;6.30;;;;;;;15.21;92.89;101481.91;6084907;23;20042;-72
2023/10/08 04:28:22;;;;;;;6.75;6.00;;;;;;;14.81;92.37;101404.94;6051789;23;20014;-73
2023/10/08 04:30:50;;;;;;;6.35;5.95;;;;;;;15.01;92.43;101449.53;6084103;23;20564;-73
2023/10/08 04:33:19;;;;;;;6.00;5.50;;;;;;;15.22;92.88;101470.41;6085374;23;20033;-73
2023/10/08 04:35:51;;;;;;;6.32;5.75;;;;;;;15.26;92.38;101474.56;6080658;23;20037;-73
2023/10/08 04:38:21;;;;;;;7.88;6.35;;;;;;;15.08;92.18;101453.53;6081803;23;20026;-73
2023/10/08 04:40:48;;;;;;;11.68;5.75;;;;;;;15.26;92.23;101482.50;6079721;23;20034;-72
2023/10/08 04:43:22;;;;;;;7.03;6.47;;;;;;;15.19;92.82;101511.06;6053280;23;20022;-72
2023/10/08 04:45:49;;;;;;;8.25;7.10;;;;;;;14.86;93.74;101527.94;6074193;23;20687;-73
2023/10/08 04:48:20;;;;;;;6.38;5.88;;;;;;;15.13;93.44;101530.81;6078478;23;20421;-73
2023/10/08 04:50:57;;;;;;;6.70;6.10;;;;;;;15.07;93.91;101530.28;6075160;23;20041;-73
2023/10/08 04:53:37;;;;;;;6.80;6.20;;;;;;;14.67;94.61;101499.09;6085234;23;20104;-72
2023/10/08 04:56:06;;;;;;;8.18;7.32;;;;;;;14.91;94.98;101528.56;6071265;23;20044;-73
2023/10/08 04:58:36;;;;;;;6.78;5.90;;;;;;;14.92;94.83;101514.38;6083832;23;20706;-74
2023/10/08 05:12:08;;;;;;;8.93;6.00;;;;;;;15.07;94.10;101517.06;6085534;23;20032;-73
2023/10/08 05:17:02;;;;;;;6.38;5.88;;;;;;;14.92;94.75;101516.19;6080938;23;20037;-71
2023/10/08 05:28:24;;;;;;;8.23;6.20;;;;;;;14.81;98.30;101596.06;6072878;23;20025;-71
2023/10/08 05:33:24;;;;;;;5.95;5.65;;;;;;;14.59;99.24;101606.09;6079931;23;20018;-71
2023/10/08 05:36:02;;;;;;;9.93;7.03;;;;;;;14.68;98.16;101592.41;6051559;23;20029;-72
2023/10/08 06:02:48;;;;;;;6.22;5.72;;;;;;;14.74;100.00;101706.53;6054281;23;20052;-70
2023/10/08 06:13:04;;;;;;;12.35;5.82;;;;;;;14.93;100.00;101716.09;6084819;23;20030;-71
2023/10/08 06:15:48;;;;;;;6.18;5.78;;;;;;;14.50;100.00;101639.13;6051552;23;20106;-71
2023/10/08 06:18:18;;;;;;;5.68;5.28;;;;;;;15.01;100.00;101726.25;6081091;23;20025;-71
2023/10/08 06:20:46;;;;;;;5.60;5.22;;;;;;;14.94;100.00;101723.09;6076720;23;20010;-71
2023/10/08 06:23:24;;;;;;;9.05;5.70;;;;;;;15.03;100.00;101714.66;6081536;23;20097;-71
2023/10/08 06:25:58;;;;;;;9.38;5.88;;;;;;;14.85;100.00;101654.88;6052497;23;20539;-71
2023/10/08 06:28:26;;;;;;;5.90;5.40;;;;;;;15.09;100.00;101695.81;6047669;23;20032;-71
2023/10/08 06:30:55;;;;;;;5.80;5.30;;;;;;;15.13;100.00;101715.88;6077700;23;20026;-71
2023/10/08 06:33:30;;;;;;;6.13;5.60;;;;;;;15.15;100.00;101714.00;6079974;23;20018;-71
2023/10/08 06:36:13;;;;;;;7.50;6.93;;;;;;;15.07;100.00;101705.63;6087480;23;20025;-71
2023/10/08 06:38:42;;;;;;;6.05;5.53;;;;;;;15.23;100.00;101737.34;6052368;23;20094;-71
2023/10/08 06:43:48;;;;;;;6.88;6.18;;;;;;;15.27;100.00;101691.28;6083636;23;20029;-71
2023/10/08 06:46:15;;;;;;;6.35;5.85;;;;;;;14.96;100.00;101632.22;6052003;23;20038;-71
2023/10/08 06:48:42;;;;;;;6.38;5.88;;;;;;;14.76;100.00;101604.25;6089157;23;20562;-70
2023/10/08 06:51:17;;;;;;;6.57;5.97;;;;;;;15.31;100.00;101662.88;6080763;23;20049;-71
2023/10/08 06:53:46;;;;;;;9.13;5.80;;;;;;;15.42;100.00;101728.44;6050494;23;20014;-71
2023/10/08 06:56:15;;;;;;;11.07;6.10;;;;;;;15.40;100.00;101725.88;6059899;23;20017;-70
2023/10/08 06:58:48;;;;;;;6.80;6.10;;;;;;;15.61;100.00;101767.91;6053791;23;20030;-73
2023/10/08 07:01:21;;;;;;;7.60;5.80;;;;;;;15.68;100.00;101762.19;6085771;23;20021;-70
2023/10/08 07:03:51;;;;;;;6.53;6.00;;;;;;;15.49;100.00;101703.31;6076732;23;20691;-72
2023/10/08 07:06:31;;;;;;;6.10;5.60;;;;;;;15.11;100.00;101597.91;6033154;23;20034;-70
2023/10/08 07:08:59;;;;;;;8.13;5.95;;;;;;;15.27;100.00;101635.75;6057025;23;20461;-71
2023/10/08 07:11:26;;;;;;;6.38;5.90;;;;;;;15.75;100.00;101715.97;6088687;23;20075;-70
2023/10/08 07:13:53;;;;;;;7.28;6.78;;;;;;;14.61;100.00;101540.81;6073200;23;20021;-70
2023/10/08 07:16:20;;;;;;;6.18;5.68;;;;;;;16.01;100.00;101769.16;6092171;23;20469;-73
2023/10/08 07:18:55;;;;;;;6.22;5.72;;;;;;;15.58;100.00;101680.78;6083229;23;20018;-73
2023/10/08 07:21:28;;;;;;;7.28;6.15;;;;;;;15.92;100.00;101733.50;6058909;23;20022;-73
2023/10/08 07:23:56;;;;;;;8.38;7.70;;;;;;;16.19;100.00;101777.00;6080092;23;20491;-69
2023/10/08 07:26:39;;;;;;;7.40;5.90;;;;;;;16.16;100.00;101780.69;6053469;23;20025;-70
2023/10/08 07:29:09;;;;;;;6.20;5.60;;;;;;;16.24;100.00;101772.28;6084840;23;20026;-70
2023/10/08 07:31:37;;;;;;;7.05;6.32;;;;;;;16.23;99.77;101707.84;6089481;23;20035;-69
2023/10/08 07:34:15;;;;;;;7.70;7.07;;;;;;;16.40;98.54;101698.03;6076129;23;20037;-71
2023/10/08 07:36:43;;;;;;;6.30;5.90;;;;;;;15.97;99.16;101634.41;6085784;23;20041;-70
2023/10/08 07:39:26;;;;;;;6.18;5.70;;;;;;;16.54;100.00;101753.72;6055335;23;20018;-70
2023/10/08 07:41:54;;;;;;;7.70;6.90;;;;;;;15.67;99.85;101599.06;6087839;23;20103;-71
2023/10/08 07:44:23;;;;;;;6.15;5.65;;;;;;;16.21;98.43;101675.31;6075699;23;20032;-71
2023/10/08 07:46:56;;;;;;;6.93;6.32;;;;;;;16.47;97.43;101705.50;6059289;23;20017;-71
2023/10/08 07:49:29;;;;;;;6.55;6.00;;;;;;;16.60;95.84;101680.91;6084290;23;20095;-70
2023/10/08 07:51:58;;;;;;;7.38;6.95;;;;;;;16.56;96.16;101690.88;6049010;23;20382;-71
2023/10/08 07:54:28;;;;;;;6.65;6.05;;;;;;;16.61;93.55;101661.41;6059042;23;20018;-70
2023/10/08 07:57:08;;;;;;;6.28;5.88;;;;;;;16.63;96.34;101713.38;6079817;23;20034;-70
2023/10/08 07:59:41;;;;;;;6.70;6.20;;;;;;;16.19;96.49;101656.00;6061174;23;20588;-71
2023/10/08 08:02:12;;;;;;;6.18;5.68;;;;;;;16.54;94.29;101666.25;6075589;23;20079;-71
2023/10/08 08:04:50;;;;;;;6.43;5.88;;;;;;;16.62;93.25;101661.34;6081630;23;20038;-71
2023/10/08 08:07:17;;;;;;;6.03;5.50;;;;;;;16.06;91.51;101544.69;6078510;23;20289;-72
2023/10/08 08:09:50;;;;;;;6.65;6.25;;;;;;;16.42;93.13;101657.25;6057938;23;20029;-69
2023/10/08 08:12:19;;;;;;;6.13;5.63;;;;;;;15.79;91.49;101547.22;6084093;23;20010;-75
2023/10/08 08:14:46;;;;;;;6.10;5.70;;;;;;;16.39;93.31;101675.16;6031181;23;20033;-68
2023/10/08 08:17:15;;;;;;;6.50;6.00;;;;;;;16.12;93.55;101618.47;6080628;23;20108;-70
2023/10/08 08:19:49;;;;;;;6.57;6.07;;;;;;;16.40;91.18;101637.09;6084491;23;20093;-71
2023/10/08 08:22:21;;;;;;;6.68;6.18;;;;;;;15.52;92.81;101513.50;6048810;23;20061;-75
2023/10/08 08:24:55;;;;;;;6.63;6.10;;;;;;;16.65;94.18;101703.53;6081563;23;20041;-74
2023/10/08 08:27:24;;;;;;;6.28;5.88;;;;;;;16.82;94.40;101721.09;6079053;23;20012;-74
2023/10/08 08:29:55;;;;;;;6.82;6.43;;;;;;;17.20;95.43;101778.84;6086746;23;20045;-73
2023/10/08 08:32:23;;;;;;;6.90;6.30;;;;;;;17.28;93.12;101741.19;6084844;23;20052;-72
2023/10/08 08:34:50;;;;;;;6.38;5.88;;;;;;;16.84;91.31;101647.63;6064476;23;20042;-70
2023/10/08 08:37:17;;;;;;;7.75;6.00;;;;;;;17.30;87.81;101638.50;6065471;23;20041;-75
2023/10/08 08:39:45;;;;;;;7.43;6.82;;;;;;;17.33;89.70;101678.91;6053486;23;20022;-75
2023/10/08 08:42:18;;;;;;;7.60;6.15;;;;;;;17.07;86.89;101586.94;6083395;23;20032;-75
2023/10/08 08:44:49;;;;;;;;;;;;;;;17.13;88.30;101659.00;6084785;23;20041;-76
2023/10/08 08:47:17;;;;;;;6.43;5.80;;;;;;;17.05;92.82;101740.00;6078825;23;19917;-77
2023/10/08 08:49:45;;;;;;;5.78;5.47;;;;;;;16.87;88.60;101615.59;6060556;23;20033;-75
2023/10/08 08:52:12;;;;;;;6.50;6.00;;;;;;;16.81;90.99;101684.03;6048709;23;20013;-74
2023/10/08 08:54:39;;;;;;;6.22;5.78;;;;;;;17.26;92.61;101762.53;6063141;23;20026;-74
2023/10/08 08:57:13;;;;;;;6.60;5.78;;;;;;;17.41;93.12;101786.38;6077137;23;20682;-74
2023/10/08 08:59:48;;;;;;;6.37;5.97;;;;;;;17.54;92.71;101763.44;6062186;23;20017;-77
2023/10/08 09:02:15;;;;;;;7.40;6.65;;;;;;;17.12;90.22;101604.25;6057153;23;20323;-77
2023/10/08 09:04:41;;;;;;;6.75;6.15;;;;;;;17.87;87.32;101653.31;6078441;23;20045;-68
2023/10/08 09:07:08;;;;;;;6.97;6.35;;;;;;;17.46;85.99;101529.50;6082143;23;20041;-75
2023/10/08 09:09:39;;;;;;;7.22;6.50;;;;;;;18.03;85.18;101611.47;6083154;23;20024;-76
2023/10/08 09:12:10;;;;;;;7.60;6.90;;;;;;;17.92;84.94;101585.66;6016977;23;20014;-75
2023/10/08 09:14:38;;;;;;;7.07;6.35;;;;;;;18.61;84.95;101688.94;6074189;23;20084;-75
2023/10/08 09:17:05;;;;;;;6.57;6.03;;;;;;;18.75;83.97;101695.94;6053557;23;20025;-75
2023/10/08 09:19:38;;;;;;;7.50;6.88;;;;;;;18.73;82.76;101626.91;6089258;23;20025;-75
2023/10/08 09:22:08;;;;;;;10.05;6.88;;;;;;;18.78;85.30;101716.97;6072661;23;20288;-75
2023/10/08 09:24:39;;;;;;;7.15;6.70;;;;;;;18.36;81.07;101546.28;6079600;23;20034;-75
2023/10/08 09:27:14;;;;;;;8.55;6.90;;;;;;;18.71;81.60;101650.09;6044722;23;20037;-75
2023/10/08 09:29:41;;;;;;;7.32;6.63;;;;;;;18.14;79.04;101505.31;6085302;23;20413;-75
2023/10/08 09:32:23;;;;;;;8.05;7.25;;;;;;;18.52;81.83;101649.69;6044983;23;20538;-75
2023/10/08 09:34:52;;;;;;;7.38;6.70;;;;;;;18.61;84.43;101722.66;6081924;23;20029;-75
2023/10/08 09:37:22;;;;;;;9.05;6.68;;;;;;;19.02;82.41;101718.91;6077990;23;20017;-76
2023/10/08 09:39:51;;;;;;;9.13;7.03;;;;;;;18.30;78.20;101506.84;6081302;23;20033;-76
2023/10/08 09:42:22;;;;;;;7.28;6.70;;;;;;;18.27;78.06;101509.75;6071405;23;20026;-75
2023/10/08 09:44:48;;;;;;;8.70;8.00;;;;;;;17.93;78.98;101497.06;6077571;23;20103;-75
2023/10/08 09:47:22;;;;;;;7.45;6.55;;;;;;;18.33;79.46;101597.00;6053236;23;20038;-74
2023/10/08 09:50:07;;;;;;;7.78;7.07;;;;;;;18.43;83.62;101724.78;6076506;23;20042;-77
2023/10/08 09:52:41;;;;;;;7.45;6.75;;;;;;;18.56;82.71;101720.28;6053717;23;20020;-74
2023/10/08 09:55:10;;;;;;;7.70;7.00;;;;;;;18.51;79.30;101597.50;6084048;23;20014;-74
2023/10/08 09:57:39;;;;;;;8.45;7.40;;;;;;;18.68;81.73;101687.56;6032930;23;20017;-76
2023/10/08 10:00:14;;;;;;;11.40;7.68;;;;;;;18.69;77.23;101543.00;6050587;23;20087;-74
2023/10/08 10:02:43;;;;;;;7.53;6.85;;;;;;;18.98;80.57;101736.88;6051992;23;20037;-73
2023/10/08 10:05:20;;;;;;;7.45;6.72;;;;;;;18.36;77.79;101510.88;6080221;23;20547;-74
2023/10/08 10:07:50;;;;;;;7.22;6.18;;;;;;;18.48;76.93;101544.53;6075217;23;20428;-75
2023/10/08 10:10:33;;;;;;;9.67;6.70;;;;;;;18.40;77.33;101542.47;6082552;23;20741;-75
2023/10/08 10:13:03;;;;;;;13.93;7.05;;;;;;;17.91;77.62;101455.63;6051018;23;20033;-75
2023/10/08 10:15:34;;;;;;;7.47;6.75;;;;;;;19.13;81.85;101791.66;6080156;23;20091;-74
2023/10/08 10:18:10;;;;;;;8.38;7.78;;;;;;;19.41;84.86;101861.56;6075283;23;20029;-75
2023/10/08 10:20:45;;;;;;;7.60;6.90;;;;;;;19.73;82.22;101792.72;6057576;23;21065;-74
2023/10/08 10:23:42;;;;;;;7.72;6.93;;;;;;;19.78;79.07;101695.63;6079440;23;20291;-74
2023/10/08 10:26:25;;;;;;;6.97;6.45;;;;;;;19.99;79.23;101727.81;6011934;23;20018;-74
2023/10/08 10:29:10;;;;;;;13.55;7.78;;;;;;;19.97;76.76;101644.47;6088544;23;20033;-76
2023/10/08 10:31:56;;;;;;;7.43;6.72;;;;;;;19.59;76.14;101566.50;6082734;23;20065;-74
2023/10/08 10:34:30;;;;;;;9.95;7.15;;;;;;;19.92;75.14;101607.50;6064547;23;20050;-75
2023/10/08 10:37:19;;;;;;;16.35;7.80;;;;;;;19.76;73.36;101517.28;6058329;23;20029;-74
2023/10/08 10:39:55;;;;;;;10.15;8.40;;;;;;;19.27;75.51;101545.00;6084252;23;20101;-75
2023/10/08 10:42:26;;;;;;;11.60;7.57;;;;;;;19.56;75.83;101603.16;6060094;23;20076;-76
2023/10/08 10:44:56;;;;;;;9.73;7.80;;;;;;;19.85;75.75;101656.91;6055556;23;20398;-74
2023/10/08 10:47:26;;;;;;;8.30;7.50;;;;;;;19.51;74.98;101537.78;6086286;23;20079;-75
2023/10/08 10:52:51;;;;;;;17.30;7.68;;;;;;;20.18;77.91;101749.41;6087003;23;20766;-74
2023/10/08 10:57:55;;;;;;;9.68;8.10;;;;;;;20.16;74.03;101595.91;6060940;23;20025;-74
2023/10/08 11:03:02;;;;;;;8.55;7.75;;;;;;;20.31;74.47;101632.03;6059134;23;20067;-75
2023/10/08 11:05:31;;;;;;;13.45;8.30;;;;;;;20.32;72.28;101545.75;6086012;23;20101;-74
2023/10/08 11:08:06;;;;;;;14.35;9.10;;;;;;;20.07;73.03;101530.88;6058816;23;20030;-75
2023/10/08 11:10:38;;;;;;;11.60;7.63;;;;;;;20.21;73.01;101586.59;6090224;23;20064;-75
2023/10/08 11:13:14;;;;;;;11.57;7.40;;;;;;;19.89;75.07;101605.09;6081730;23;20085;-75
2023/10/08 11:15:49;;;;;;;14.13;8.60;;;;;;;20.16;73.58;101578.09;6054690;23;20049;-75
2023/10/08 11:18:21;;;;;;;9.82;8.82;;;;;;;20.17;72.40;101536.31;6059508;23;20018;-74
2023/10/08 11:21:13;;;;;;;8.32;7.40;;;;;;;20.04;72.99;101577.25;6078767;23;20029;-77
2023/10/08 11:23:52;;;;;;;11.23;7.65;;;;;;;20.37;77.70;101780.00;6054750;23;20026;-75
2023/10/08 11:26:30;;;;;;;9.57;7.60;;;;;;;20.56;72.65;101568.75;6083362;23;20025;-75
2023/10/08 11:29:00;;;;;;;9.35;7.20;;;;;;;20.33;72.19;101529.63;6055225;23;20613;-75
2023/10/08 11:31:28;;;;;;;9.18;8.15;;;;;;;20.17;70.38;101427.06;6081896;23;22464;-75
2023/10/08 11:33:59;;;;;;;11.65;8.05;;;;;;;20.33;74.75;101646.09;6062580;23;20014;-74
2023/10/08 11:36:28;;;;;;;10.38;8.23;;;;;;;20.20;75.65;101632.84;6063981;23;20036;-75
2023/10/08 11:39:00;;;;;;;7.28;6.68;;;;;;;20.72;76.56;101762.13;6055274;23;20023;-75
2023/10/08 11:41:35;;;;;;;12.10;7.80;;;;;;;20.46;75.64;101683.28;6084123;23;20013;-75
2023/10/08 11:44:03;;;;;;;12.73;8.27;;;;;;;20.46;74.89;101657.47;6055017;23;20659;-74
2023/10/08 11:46:38;;;;;;;8.57;7.78;;;;;;;20.62;74.75;101659.81;6048736;23;20022;-75
2023/10/08 11:49:05;;;;;;;8.73;7.25;;;;;;;20.50;72.15;101562.91;6090852;23;20037;-74
2023/10/08 11:51:33;;;;;;;9.80;8.45;;;;;;;20.35;75.82;101648.63;6059012;23;20053;-75
2023/10/08 11:54:00;;;;;;;11.40;8.65;;;;;;;20.52;78.03;101760.97;6082375;23;20022;-74
2023/10/08 11:56:28;;;;;;;12.10;7.82;;;;;;;20.11;78.26;101701.06;6078001;23;20021;-75
2023/10/08 11:58:58;;;;;;;11.82;7.50;;;;;;;20.40;79.26;101753.94;6082288;23;20026;-75
2023/10/08 12:01:24;;;;;;;11.15;8.00;;;;;;;20.88;81.45;101865.84;6084215;23;20017;-75
2023/10/08 12:03:51;;;;;;;9.30;8.20;;;;;;;20.96;79.14;101798.53;6075685;23;20042;-75
2023/10/08 12:06:19;;;;;;;9.27;7.43;;;;;;;21.00;78.73;101791.16;6083303;23;20069;-75
2023/10/08 12:08:47;;;;;;;7.28;6.60;;;;;;;20.58;78.43;101700.16;6053345;23;20416;-76
2023/10/08 12:11:14;;;;;;;12.23;7.45;;;;;;;20.69;81.41;101790.88;6057942;23;20034;-75
2023/10/08 12:13:44;;;;;;;8.68;7.88;;;;;;;20.30;79.60;101687.16;6080322;23;20032;-75
2023/10/08 12:16:17;;;;;;;8.20;7.28;;;;;;;20.39;80.94;101724.75;6075383;23;20056;-74
2023/10/08 12:18:48;;;;;;;8.98;7.93;;;;;;;19.75;81.41;101694.06;6077816;23;20018;-75
2023/10/08 12:21:17;;;;;;;7.57;6.97;;;;;;;20.38;82.76;101813.69;6083915;23;20053;-75
2023/10/08 12:23:46;;;;;;;7.93;7.13;;;;;;;19.86;81.95;101704.72;6077399;23;20053;-75
2023/10/08 12:26:18;;;;;;;10.43;7.30;;;;;;;20.15;81.26;101741.66;6031163;23;20687;-75
2023/10/08 12:28:48;;;;;;;13.95;7.32;;;;;;;19.73;79.12;101619.59;6082029;23;20045;-75
2023/10/08 12:31:15;;;;;;;10.25;8.43;;;;;;;19.81;78.54;101626.16;6057192;23;20046;-74
2023/10/08 12:33:43;;;;;;;9.10;7.45;;;;;;;19.76;80.58;101681.56;6081676;23;20147;-74
2023/10/08 12:36:11;;;;;;;13.00;8.57;;;;;;;18.65;79.60;101464.41;6060123;23;20061;-74
2023/10/08 12:38:43;;;;;;;13.52;7.97;;;;;;;19.36;79.71;101610.81;6073338;23;20025;-74
2023/10/08 12:41:14;;;;;;;10.77;7.40;;;;;;;19.77;79.56;101659.31;6068160;23;20021;-75
2023/10/08 12:43:42;;;;;;;8.23;7.40;;;;;;;19.09;79.92;101558.72;6082014;23;20017;-75
2023/10/08 12:46:17;;;;;;;9.77;7.30;;;;;;;19.74;81.33;101705.66;6074365;23;20114;-75
2023/10/08 12:48:52;;;;;;;8.13;7.10;;;;;;;19.76;86.61;101818.25;6077900;23;20021;-75
2023/10/08 12:51:23;;;;;;;14.05;7.28;;;;;;;19.80;88.25;101827.72;6029361;23;20034;-75
2023/10/08 12:53:58;;;;;;;10.50;8.63;;;;;;;19.22;89.29;101757.38;6083137;23;20062;-76
2023/10/08 12:56:31;;;;;;;13.02;7.78;;;;;;;19.36;87.34;101729.75;6055151;23;20176;-75
2023/10/08 12:59:07;;;;;;;8.57;7.35;;;;;;;19.90;90.11;101836.75;6056064;23;20088;-75
2023/10/08 13:01:41;;;;;;;7.95;7.20;;;;;;;19.90;92.71;101878.53;6082668;23;20029;-74